createdAt,value
2018-09-13T00:01:48.884Z,5.58
2018-09-13T00:04:16.641Z,5.30
2018-09-13T00:06:44.384Z,5.67
2018-09-13T00:09:12.238Z,5.83
2018-09-13T00:11:40.036Z,6.12
2018-09-13T00:14:07.764Z,6.40
2018-09-13T00:16:35.522Z,6.37
2018-09-13T00:19:03.372Z,5.75
2018-09-13T00:21:31.052Z,6.00
2018-09-13T00:23:58.852Z,6.35
2018-09-13T00:26:26.664Z,6.15
2018-09-13T00:28:54.434Z,6.12
2018-09-13T00:31:22.296Z,6.25
2018-09-13T00:33:50.061Z,6.40
2018-09-13T00:36:17.904Z,7.65
2018-09-13T00:38:46.018Z,7.35
2018-09-13T00:41:13.797Z,6.35
2018-09-13T00:43:41.542Z,6.90
2018-09-13T00:46:09.324Z,6.45
2018-09-13T00:48:37.112Z,6.37
2018-09-13T00:51:04.876Z,6.90
2018-09-13T00:53:32.688Z,7.00
2018-09-13T00:56:00.454Z,7.30
2018-09-13T00:58:28.140Z,6.95
2018-09-13T01:00:55.893Z,7.30
2018-09-13T01:03:23.664Z,7.00
2018-09-13T01:05:51.428Z,6.87
2018-09-13T01:08:19.220Z,7.20
2018-09-13T01:10:46.984Z,7.20
2018-09-13T01:13:14.729Z,7.95
2018-09-13T01:15:42.892Z,7.35
2018-09-13T01:18:10.632Z,8.15
2018-09-13T01:20:38.727Z,8.05
2018-09-13T01:23:06.553Z,7.92
2018-09-13T01:25:34.323Z,8.05
2018-09-13T01:28:02.085Z,7.90
2018-09-13T01:30:29.969Z,7.72
2018-09-13T01:32:57.685Z,7.53
2018-09-13T01:35:25.517Z,7.10
2018-09-13T01:37:53.308Z,7.75
2018-09-13T01:40:21.024Z,8.40
2018-09-13T01:42:48.720Z,7.90
2018-09-13T01:45:16.440Z,7.80
2018-09-13T01:47:44.244Z,7.72
2018-09-13T01:50:12.009Z,8.08
2018-09-13T01:52:39.866Z,8.18
2018-09-13T01:55:07.704Z,8.00
2018-09-13T01:57:35.456Z,8.30
2018-09-13T02:00:03.466Z,8.43
2018-09-13T02:02:31.196Z,8.98
2018-09-13T02:04:58.932Z,8.20
2018-09-13T02:07:27.229Z,7.67
2018-09-13T02:09:54.993Z,8.50
2018-09-13T02:12:22.724Z,8.58
2018-09-13T02:14:50.489Z,8.25
2018-09-13T02:17:18.236Z,8.50
2018-09-13T02:19:45.979Z,8.40
2018-09-13T02:22:14.089Z,8.43
2018-09-13T02:24:41.871Z,8.55
2018-09-13T02:27:09.692Z,8.95
2018-09-13T02:29:37.436Z,8.45
2018-09-13T02:32:05.201Z,8.75
2018-09-13T02:34:32.975Z,9.15
2018-09-13T02:37:01.057Z,9.25
2018-09-13T02:39:29.020Z,8.65
2018-09-13T02:41:56.817Z,8.93
2018-09-13T02:44:24.589Z,8.75
2018-09-13T02:46:52.433Z,9.20
2018-09-13T02:49:20.236Z,8.85
2018-09-13T02:51:49.453Z,9.80
2018-09-13T02:54:17.181Z,9.15
2018-09-13T02:56:44.969Z,10.25
2018-09-13T02:59:12.952Z,9.25
2018-09-13T03:01:40.700Z,9.10
2018-09-13T03:04:08.504Z,9.35
2018-09-13T03:06:36.284Z,8.93
2018-09-13T03:09:08.042Z,9.35
2018-09-13T03:11:35.791Z,9.48
2018-09-13T03:14:03.937Z,8.95
2018-09-13T03:16:31.668Z,8.60
2018-09-13T03:18:59.404Z,8.48
2018-09-13T03:21:27.128Z,8.90
2018-09-13T03:23:54.907Z,8.65
2018-09-13T03:26:22.687Z,8.65
2018-09-13T03:28:50.861Z,9.40
2018-09-13T03:31:18.548Z,8.73
2018-09-13T03:33:46.350Z,8.53
2018-09-13T03:36:14.169Z,9.28
2018-09-13T03:38:41.884Z,8.98
2018-09-13T03:41:10.194Z,9.45
2018-09-13T03:43:38.820Z,9.80
2018-09-13T03:46:06.840Z,9.25
2018-09-13T03:48:34.568Z,8.60
2018-09-13T03:51:02.721Z,8.75
2018-09-13T03:53:30.474Z,9.25
2018-09-13T03:55:58.224Z,8.63
2018-09-13T03:58:26.388Z,8.75
2018-09-13T04:00:54.108Z,9.38
2018-09-13T04:03:22.032Z,9.13
2018-09-13T04:05:50.057Z,8.93
2018-09-13T04:08:17.860Z,8.20
2018-09-13T04:10:45.577Z,8.38
2018-09-13T04:13:13.464Z,8.33
2018-09-13T04:15:41.145Z,9.05
2018-09-13T04:18:08.976Z,8.70
2018-09-13T04:20:36.841Z,7.97
2018-09-13T04:23:04.844Z,8.65
2018-09-13T04:25:32.664Z,8.25
2018-09-13T04:28:00.411Z,8.88
2018-09-13T04:30:28.182Z,8.60
2018-09-13T04:32:56.103Z,8.50
2018-09-13T04:35:24.187Z,9.40
2018-09-13T04:37:51.916Z,9.03
2018-09-13T04:40:19.657Z,8.85
2018-09-13T04:42:47.824Z,9.10
2018-09-13T04:45:15.553Z,8.78
2018-09-13T04:47:43.344Z,8.55
2018-09-13T04:50:11.132Z,8.53
2018-09-13T04:52:39.004Z,7.97
2018-09-13T04:55:06.788Z,8.90
2018-09-13T04:57:34.566Z,8.90
2018-09-13T05:00:02.331Z,8.80
2018-09-13T05:02:30.091Z,9.43
2018-09-13T05:04:57.880Z,9.25
2018-09-13T05:07:25.590Z,8.60
2018-09-13T05:09:53.352Z,9.25
2018-09-13T05:12:21.127Z,10.08
2018-09-13T05:14:48.901Z,8.98
2018-09-13T05:17:16.686Z,8.33
2018-09-13T05:19:44.724Z,8.50
2018-09-13T05:22:12.448Z,8.38
2018-09-13T05:24:40.192Z,8.23
2018-09-13T05:27:07.976Z,8.85
2018-09-13T05:29:35.708Z,9.20
2018-09-13T05:32:03.572Z,8.78
2018-09-13T05:34:31.752Z,8.83
2018-09-13T05:36:59.608Z,8.70
2018-09-13T05:39:27.421Z,9.88
2018-09-13T05:41:55.251Z,9.38
2018-09-13T05:44:23.145Z,9.03
2018-09-13T05:46:50.884Z,9.48
2018-09-13T05:49:18.668Z,8.78
2018-09-13T05:51:46.445Z,8.93
2018-09-13T05:54:14.320Z,8.43
2018-09-13T05:56:42.644Z,9.05
2018-09-13T05:59:10.356Z,8.50
2018-09-13T06:01:38.248Z,9.08
2018-09-13T06:04:06.042Z,8.53
2018-09-13T06:06:33.836Z,8.40
2018-09-13T06:09:01.641Z,9.18
2018-09-13T06:11:29.404Z,8.90
2018-09-13T06:13:57.165Z,9.15
2018-09-13T06:16:25.667Z,8.90
2018-09-13T06:18:53.513Z,8.78
2018-09-13T06:21:21.253Z,8.85
2018-09-13T06:23:49.004Z,8.38
2018-09-13T06:26:16.846Z,8.18
2018-09-13T06:28:44.649Z,8.85
2018-09-13T06:31:12.462Z,9.90
2018-09-13T06:33:40.309Z,10.90
2018-09-13T06:36:08.076Z,11.95
2018-09-13T06:38:35.812Z,10.75
2018-09-13T06:41:03.608Z,10.03
2018-09-13T06:43:31.356Z,10.03
2018-09-13T06:45:59.370Z,11.53
2018-09-13T06:48:27.142Z,9.50
2018-09-13T06:50:54.855Z,9.25
2018-09-13T06:53:22.628Z,8.95
2018-09-13T06:55:50.444Z,10.23
2018-09-13T06:58:18.177Z,11.70
2018-09-13T07:00:45.980Z,14.35
2018-09-13T07:03:13.728Z,17.75
2018-09-13T07:05:41.513Z,14.90
2018-09-13T07:08:09.257Z,14.23
2018-09-13T07:10:37.045Z,17.35
2018-09-13T07:13:04.923Z,17.85
2018-09-13T07:15:32.735Z,16.60
2018-09-13T07:18:00.406Z,17.42
2018-09-13T07:20:28.205Z,17.67
2018-09-13T07:22:56.109Z,18.15
2018-09-13T07:25:23.828Z,18.67
2018-09-13T07:27:51.601Z,18.12
2018-09-13T07:30:19.300Z,17.67
2018-09-13T07:32:47.072Z,17.45
2018-09-13T07:35:14.928Z,17.02
2018-09-13T07:37:42.828Z,17.25
2018-09-13T07:40:10.601Z,16.07
2018-09-13T07:42:39.116Z,16.67
2018-09-13T07:45:06.844Z,17.30
2018-09-13T07:47:34.584Z,17.17
2018-09-13T07:50:02.377Z,16.52
2018-09-13T07:52:30.141Z,16.12
2018-09-13T07:54:57.836Z,15.13
2018-09-13T07:57:25.624Z,15.88
2018-09-13T07:59:53.418Z,14.75
2018-09-13T08:02:21.224Z,13.18
2018-09-13T08:04:49.009Z,14.13
2018-09-13T08:07:16.756Z,14.00
2018-09-13T08:09:44.536Z,13.28
2018-09-13T08:12:12.419Z,14.83
2018-09-13T08:14:40.167Z,14.55
2018-09-13T08:17:08.240Z,14.00
2018-09-13T08:19:36.007Z,15.08
2018-09-13T08:22:03.965Z,13.93
2018-09-13T08:24:31.792Z,14.63
2018-09-13T08:26:59.647Z,15.98
2018-09-13T08:29:27.406Z,16.65
2018-09-13T08:31:55.340Z,16.52
2018-09-13T08:34:23.516Z,15.45
2018-09-13T08:36:51.719Z,13.88
2018-09-13T08:39:19.449Z,13.80
2018-09-13T08:41:47.304Z,14.68
2018-09-13T08:44:15.127Z,12.68
2018-09-13T08:46:42.925Z,13.40
2018-09-13T08:49:10.788Z,13.93
2018-09-13T08:51:38.615Z,14.25
2018-09-13T08:54:06.464Z,14.58
2018-09-13T08:56:34.312Z,14.68
2018-09-13T08:59:02.064Z,13.83
2018-09-13T09:01:29.888Z,14.93
2018-09-13T09:03:57.704Z,15.30
2018-09-13T09:06:25.459Z,14.87
2018-09-13T09:08:53.284Z,15.00
2018-09-13T09:11:21.212Z,14.33
2018-09-13T09:13:49.021Z,14.85
2018-09-13T09:16:16.833Z,14.10
2018-09-13T09:18:44.979Z,13.58
2018-09-13T09:21:12.720Z,14.25
2018-09-13T09:23:40.539Z,13.88
2018-09-13T09:26:08.319Z,14.15
2018-09-13T09:28:36.116Z,14.55
2018-09-13T09:31:03.877Z,14.10
2018-09-13T09:33:31.720Z,13.55
2018-09-13T09:35:59.503Z,13.98
2018-09-13T09:38:27.266Z,13.78
2018-09-13T09:40:55.030Z,14.95
2018-09-13T09:43:22.809Z,14.73
2018-09-13T09:45:50.564Z,13.25
2018-09-13T09:48:18.352Z,13.25
2018-09-13T09:50:46.140Z,14.23
2018-09-13T09:53:13.936Z,11.68
2018-09-13T09:55:41.800Z,11.95
2018-09-13T09:58:09.581Z,12.15
2018-09-13T10:00:43.144Z,11.73
2018-09-13T10:03:11.076Z,9.98
2018-09-13T10:05:38.776Z,8.88
2018-09-13T10:08:06.541Z,8.45
2018-09-13T10:10:35.065Z,8.70
2018-09-13T10:13:02.841Z,8.43
2018-09-13T10:15:36.272Z,8.18
2018-09-13T10:18:09.925Z,8.05
2018-09-13T10:20:43.415Z,8.90
2018-09-13T10:23:16.990Z,8.23
2018-09-13T10:25:50.552Z,8.68
2018-09-13T10:28:24.072Z,8.45
2018-09-13T10:30:57.556Z,7.60
2018-09-13T10:33:31.222Z,7.50
2018-09-13T10:36:04.988Z,7.58
2018-09-13T10:38:38.403Z,7.60
2018-09-13T10:41:12.037Z,7.53
2018-09-13T10:43:45.524Z,9.00
2018-09-13T10:46:19.132Z,9.65
2018-09-13T10:48:52.596Z,9.33
2018-09-13T10:51:26.071Z,9.25
2018-09-13T10:53:59.728Z,10.48
2018-09-13T10:56:27.702Z,8.65
2018-09-13T10:58:55.474Z,9.78
2018-09-13T11:01:23.326Z,8.40
2018-09-13T11:03:51.959Z,8.45
2018-09-13T11:06:19.780Z,8.03
2018-09-13T11:08:47.601Z,9.43
2018-09-13T11:11:15.522Z,8.78
2018-09-13T11:13:47.600Z,7.97
2018-09-13T11:16:15.384Z,9.73
2018-09-13T11:18:43.244Z,9.33
2018-09-13T11:21:10.996Z,7.42
2018-09-13T11:23:38.793Z,8.53
2018-09-13T11:26:06.628Z,8.60
2018-09-13T11:28:34.476Z,8.45
2018-09-13T11:31:03.620Z,8.38
2018-09-13T11:33:33.173Z,8.68
2018-09-13T11:36:01.059Z,8.38
2018-09-13T11:38:28.924Z,8.25
2018-09-13T11:40:57.254Z,8.68
2018-09-13T11:43:24.920Z,8.60
2018-09-13T11:45:52.812Z,8.23
2018-09-13T11:48:21.041Z,7.55
2018-09-13T11:50:48.804Z,7.70
2018-09-13T11:53:16.717Z,7.08
2018-09-13T11:55:45.079Z,7.53
2018-09-13T11:58:14.272Z,7.62
2018-09-13T12:00:42.416Z,6.67
2018-09-13T12:03:10.792Z,6.85
2018-09-13T12:05:38.776Z,7.80
2018-09-13T12:08:06.620Z,7.80
2018-09-13T12:10:34.345Z,8.98
2018-09-13T12:13:02.129Z,8.18
2018-09-13T12:15:30.604Z,7.78
2018-09-13T12:17:58.490Z,7.50
2018-09-13T12:20:26.157Z,7.20
2018-09-13T12:22:53.915Z,6.40
2018-09-13T12:25:21.747Z,6.92
2018-09-13T12:27:49.517Z,6.40
2018-09-13T12:30:17.333Z,6.05
2018-09-13T12:32:45.168Z,5.70
2018-09-13T12:35:12.864Z,6.58
2018-09-13T12:37:40.870Z,6.10
2018-09-13T12:40:09.576Z,6.60
2018-09-13T12:42:37.396Z,6.35
2018-09-13T12:45:06.892Z,5.47
2018-09-13T12:47:34.664Z,5.25
2018-09-13T12:50:02.851Z,5.75
2018-09-13T12:52:30.544Z,6.00
2018-09-13T12:54:58.620Z,5.60
2018-09-13T12:57:26.368Z,5.50
2018-09-13T12:59:54.180Z,5.65
2018-09-13T13:02:21.961Z,5.28
2018-09-13T13:04:49.763Z,6.10
2018-09-13T13:07:17.484Z,6.22
2018-09-13T13:09:45.392Z,6.50
2018-09-13T13:12:13.221Z,5.47
2018-09-13T13:14:40.931Z,5.30
2018-09-13T13:17:08.789Z,6.03
2018-09-13T13:19:36.553Z,5.80
2018-09-13T13:22:04.889Z,5.47
2018-09-13T13:24:33.105Z,6.83
2018-09-13T13:27:00.841Z,7.12
2018-09-13T13:29:28.744Z,7.25
2018-09-13T13:31:57.184Z,6.97
2018-09-13T13:34:24.892Z,7.25
2018-09-13T13:36:52.705Z,7.17
2018-09-13T13:39:20.505Z,6.97
2018-09-13T13:41:48.289Z,6.33
2018-09-13T13:44:16.048Z,7.80
2018-09-13T13:46:44.110Z,7.12
2018-09-13T13:49:11.880Z,8.15
2018-09-13T13:51:39.625Z,7.58
2018-09-13T13:54:07.404Z,7.55
2018-09-13T13:56:35.692Z,7.15
2018-09-13T13:59:03.556Z,7.78
2018-09-13T14:01:31.304Z,7.70
2018-09-13T14:03:59.005Z,7.80
2018-09-13T14:06:26.784Z,7.85
2018-09-13T14:08:54.540Z,8.65
2018-09-13T14:11:22.272Z,8.43
2018-09-13T14:13:50.233Z,8.60
2018-09-13T14:16:18.009Z,8.58
2018-09-13T14:18:46.172Z,8.98
2018-09-13T14:21:14.032Z,8.40
2018-09-13T14:23:41.980Z,9.08
2018-09-13T14:26:09.718Z,8.98
2018-09-13T14:28:37.428Z,8.98
2018-09-13T14:31:05.504Z,8.70
2018-09-13T14:33:33.208Z,9.80
2018-09-13T14:36:01.048Z,9.33
2018-09-13T14:38:28.857Z,8.80
2018-09-13T14:40:56.620Z,9.05
2018-09-13T14:43:24.360Z,9.25
2018-09-13T14:45:52.561Z,9.63
2018-09-13T14:48:20.426Z,9.40
2018-09-13T14:50:48.438Z,9.60
2018-09-13T14:53:16.259Z,9.33
2018-09-13T14:55:44.095Z,9.13
2018-09-13T14:58:11.840Z,10.30
2018-09-13T15:00:39.641Z,10.03
2018-09-13T15:03:07.373Z,10.35
2018-09-13T15:05:35.121Z,10.90
2018-09-13T15:08:02.987Z,10.23
2018-09-13T15:10:30.746Z,9.85
2018-09-13T15:12:58.625Z,11.12
2018-09-13T15:15:26.436Z,11.45
2018-09-13T15:17:54.212Z,11.35
2018-09-13T15:20:21.975Z,11.10
2018-09-13T15:22:49.728Z,11.30
2018-09-13T15:25:17.468Z,10.25
2018-09-13T15:27:45.294Z,11.18
2018-09-13T15:30:13.136Z,11.65
2018-09-13T15:32:41.136Z,11.48
2018-09-13T15:35:09.051Z,11.73
2018-09-13T15:37:37.142Z,11.73
2018-09-13T15:40:05.150Z,11.65
2018-09-13T15:42:32.929Z,11.43
2018-09-13T15:45:00.641Z,11.68
2018-09-13T15:47:28.377Z,11.57
2018-09-13T15:49:56.501Z,11.85
2018-09-13T15:52:24.240Z,11.30
2018-09-13T15:54:52.152Z,11.43
2018-09-13T15:57:19.856Z,11.18
2018-09-13T15:59:47.661Z,12.07
2018-09-13T16:02:15.512Z,12.15
2018-09-13T16:04:43.277Z,12.15
2018-09-13T16:07:11.380Z,12.03
2018-09-13T16:09:39.144Z,11.85
2018-09-13T16:12:06.968Z,11.93
2018-09-13T16:14:34.980Z,12.93
2018-09-13T16:17:02.810Z,12.45
2018-09-13T16:19:30.625Z,12.50
2018-09-13T16:21:58.449Z,13.53
2018-09-13T16:24:26.244Z,13.98
2018-09-13T16:26:53.964Z,13.95
2018-09-13T16:29:21.761Z,13.98
2018-09-13T16:31:49.560Z,13.88
2018-09-13T16:34:17.573Z,14.03
2018-09-13T16:36:51.205Z,14.23
2018-09-13T16:39:27.589Z,14.03
2018-09-13T16:42:01.533Z,13.70
2018-09-13T16:44:35.048Z,13.88
2018-09-13T16:47:08.864Z,13.25
2018-09-13T16:49:38.609Z,14.10
2018-09-13T16:52:06.462Z,14.40
2018-09-13T16:54:34.331Z,14.20
2018-09-13T16:57:02.568Z,14.35
2018-09-13T16:59:30.296Z,14.20
2018-09-13T17:01:58.373Z,13.43
2018-09-13T17:04:26.310Z,12.45
2018-09-13T17:06:54.286Z,13.00
2018-09-13T17:09:22.125Z,12.65
2018-09-13T17:11:50.172Z,11.68
2018-09-13T17:14:17.897Z,12.63
2018-09-13T17:16:45.816Z,12.35
2018-09-13T17:19:13.541Z,12.30
2018-09-13T17:21:41.594Z,12.85
2018-09-13T17:24:09.344Z,12.68
2018-09-13T17:26:37.112Z,13.43
2018-09-13T17:29:04.933Z,12.90
2018-09-13T17:31:32.735Z,12.95
2018-09-13T17:34:00.627Z,13.18
2018-09-13T17:36:28.657Z,12.95
2018-09-13T17:38:56.408Z,11.97
2018-09-13T17:41:24.176Z,13.48
2018-09-13T17:43:51.892Z,11.57
2018-09-13T17:46:19.739Z,12.85
2018-09-13T17:48:47.541Z,12.07
2018-09-13T17:51:15.341Z,11.57
2018-09-13T17:53:43.137Z,12.47
2018-09-13T17:56:10.955Z,12.60
2018-09-13T17:58:38.912Z,12.25
2018-09-13T18:01:06.760Z,12.30
2018-09-13T18:03:34.592Z,11.80
2018-09-13T18:06:02.368Z,12.45
2018-09-13T18:08:30.124Z,12.65
2018-09-13T18:10:57.989Z,13.70
2018-09-13T18:13:25.812Z,13.43
2018-09-13T18:15:53.568Z,12.10
2018-09-13T18:18:21.332Z,12.88
2018-09-13T18:20:49.120Z,13.48
2018-09-13T18:23:16.820Z,13.35
2018-09-13T18:25:44.605Z,12.73
2018-09-13T18:28:12.377Z,13.45
2018-09-13T18:30:40.176Z,12.18
2018-09-13T18:33:08.001Z,13.00
2018-09-13T18:35:35.839Z,13.32
2018-09-13T18:38:03.627Z,13.25
2018-09-13T18:40:31.364Z,13.05
2018-09-13T18:42:59.217Z,13.78
2018-09-13T18:45:27.026Z,13.08
2018-09-13T18:47:54.850Z,13.50
2018-09-13T18:50:22.641Z,15.60
2018-09-13T18:52:50.498Z,14.23
2018-09-13T18:55:18.310Z,15.28
2018-09-13T18:57:46.020Z,15.23
2018-09-13T19:00:14.097Z,14.38
2018-09-13T19:02:42.376Z,15.65
2018-09-13T19:05:10.300Z,14.83
2018-09-13T19:07:38.084Z,16.35
2018-09-13T19:10:06.397Z,14.90
2018-09-13T19:12:34.258Z,14.75
2018-09-13T19:15:02.016Z,15.53
2018-09-13T19:17:29.788Z,15.25
2018-09-13T19:19:57.536Z,16.23
2018-09-13T19:22:25.300Z,16.27
2018-09-13T19:24:52.981Z,14.98
2018-09-13T19:27:20.712Z,16.00
2018-09-13T19:29:48.440Z,16.73
2018-09-13T19:32:16.124Z,16.48
2018-09-13T19:34:43.853Z,17.17
2018-09-13T19:37:11.688Z,18.12
2018-09-13T19:39:39.626Z,16.45
2018-09-13T19:42:07.448Z,16.90
2018-09-13T19:44:35.256Z,16.73
2018-09-13T19:47:03.053Z,16.95
2018-09-13T19:49:30.825Z,16.73
2018-09-13T19:51:58.641Z,15.85
2018-09-13T19:54:26.425Z,16.77
2018-09-13T19:56:54.164Z,16.62
2018-09-13T19:59:21.973Z,16.48
2018-09-13T20:01:50.138Z,15.43
2018-09-13T20:04:17.908Z,17.07
2018-09-13T20:06:45.666Z,16.10
2018-09-13T20:09:13.387Z,16.62
2018-09-13T20:11:41.195Z,18.17
2018-09-13T20:14:09.076Z,16.35
2018-09-13T20:16:36.840Z,17.15
2018-09-13T20:19:04.589Z,17.02
2018-09-13T20:21:32.477Z,16.60
2018-09-13T20:24:00.517Z,15.80
2018-09-13T20:26:28.308Z,17.00
2018-09-13T20:28:56.392Z,17.07
2018-09-13T20:31:24.175Z,17.07
2018-09-13T20:33:51.963Z,18.92
2018-09-13T20:36:19.767Z,17.60
2018-09-13T20:38:47.569Z,17.87
2018-09-13T20:41:15.277Z,18.35
2018-09-13T20:43:43.121Z,18.45
2018-09-13T20:46:10.926Z,16.67
2018-09-13T20:48:38.721Z,17.45
2018-09-13T20:51:06.515Z,17.30
2018-09-13T20:53:34.311Z,17.82
2018-09-13T20:56:02.040Z,15.95
2018-09-13T20:58:29.849Z,17.50
2018-09-13T21:00:57.604Z,18.95
2018-09-13T21:03:25.565Z,19.55
2018-09-13T21:05:53.324Z,19.42
2018-09-13T21:08:21.116Z,20.37
2018-09-13T21:10:48.908Z,22.00
2018-09-13T21:13:16.752Z,22.20
2018-09-13T21:15:44.514Z,23.40
2018-09-13T21:18:12.288Z,23.90
2018-09-13T21:20:40.037Z,24.70
2018-09-13T21:23:08.004Z,24.70
2018-09-13T21:25:35.781Z,25.30
2018-09-13T21:28:03.641Z,25.50
2018-09-13T21:30:31.357Z,25.37
2018-09-13T21:32:59.169Z,25.35
2018-09-13T21:35:27.020Z,27.10
2018-09-13T21:37:54.752Z,27.58
2018-09-13T21:40:22.537Z,26.90
2018-09-13T21:42:50.354Z,27.65
2018-09-13T21:45:18.140Z,27.55
2018-09-13T21:47:45.924Z,27.45
2018-09-13T21:50:13.696Z,27.02
2018-09-13T21:52:41.460Z,26.68
2018-09-13T21:55:09.194Z,28.10
2018-09-13T21:57:37.421Z,27.20
2018-09-13T22:00:08.520Z,26.87
2018-09-13T22:02:36.513Z,27.62
2018-09-13T22:05:04.756Z,28.75
2018-09-13T22:07:32.513Z,27.42
2018-09-13T22:10:00.224Z,26.80
2018-09-13T22:12:27.969Z,26.85
2018-09-13T22:14:55.828Z,27.60
2018-09-13T22:17:24.864Z,25.90
2018-09-13T22:19:53.292Z,26.45
2018-09-13T22:22:21.063Z,26.07
2018-09-13T22:24:48.816Z,24.60
2018-09-13T22:27:16.589Z,24.92
2018-09-13T22:29:44.328Z,26.27
2018-09-13T22:32:12.098Z,23.50
2018-09-13T22:34:39.840Z,25.15
2018-09-13T22:37:07.840Z,24.80
2018-09-13T22:39:35.641Z,25.12
2018-09-13T22:42:03.492Z,24.50
2018-09-13T22:44:35.832Z,26.33
2018-09-13T22:47:03.721Z,24.50
2018-09-13T22:49:31.589Z,27.52
2018-09-13T22:51:59.401Z,27.45
2018-09-13T22:54:27.194Z,26.65
2018-09-13T22:56:54.948Z,25.75
2018-09-13T22:59:22.769Z,25.08
2018-09-13T23:01:50.554Z,25.82
2018-09-13T23:04:18.592Z,25.17
2018-09-13T23:06:46.368Z,26.12
2018-09-13T23:09:14.097Z,25.75
2018-09-13T23:11:41.917Z,26.68
2018-09-13T23:14:10.629Z,25.10
2018-09-13T23:16:38.363Z,24.43
2018-09-13T23:19:06.307Z,27.37
2018-09-13T23:21:34.058Z,25.92
2018-09-13T23:24:01.796Z,24.90
2018-09-13T23:26:30.004Z,24.80
2018-09-13T23:28:58.198Z,24.57
2018-09-13T23:31:26.039Z,25.92
2018-09-13T23:33:54.172Z,24.27
2018-09-13T23:36:22.108Z,24.65
2018-09-13T23:38:50.069Z,25.65
2018-09-13T23:41:18.128Z,25.48
2018-09-13T23:43:45.944Z,25.08
2018-09-13T23:46:13.815Z,27.05
2018-09-13T23:48:41.600Z,26.07
2018-09-13T23:51:09.370Z,26.12
2018-09-13T23:53:37.185Z,26.15
2018-09-13T23:56:05.601Z,24.00
2018-09-13T23:58:33.356Z,24.82
